createdAt,value
2023-02-23T00:09:37.087Z,43.10
2023-02-23T00:13:24.611Z,38.30
2023-02-23T00:17:12.462Z,40.60
2023-02-23T00:20:55.429Z,39.60
2023-02-23T00:24:45.740Z,47.60
2023-02-23T00:28:33.564Z,46.40
2023-02-23T00:32:23.379Z,46.90
2023-02-23T00:39:58.217Z,54.30
2023-02-23T00:47:33.380Z,52.70
2023-02-23T00:51:20.469Z,49.00
2023-02-23T00:55:09.041Z,66.00
2023-02-23T00:58:55.288Z,60.60
2023-02-23T01:02:42.957Z,72.60
2023-02-23T01:06:30.926Z,76.60
2023-02-23T01:10:18.538Z,50.30
2023-02-23T01:14:06.047Z,52.30
2023-02-23T01:17:53.707Z,43.60
2023-02-23T01:21:41.469Z,46.30
2023-02-23T01:25:29.704Z,45.30
2023-02-23T01:37:38.395Z,54.10
2023-02-23T01:41:25.927Z,55.40
2023-02-23T01:45:13.708Z,54.00
2023-02-23T02:00:54.356Z,59.60
2023-02-23T02:04:43.414Z,50.50
2023-02-23T02:08:32.819Z,45.90
2023-02-23T02:12:22.160Z,46.00
2023-02-23T02:16:11.149Z,41.70
2023-02-23T02:20:08.392Z,39.40
2023-02-23T02:32:20.393Z,27.20
2023-02-23T02:36:31.053Z,25.70
2023-02-23T02:40:44.391Z,22.90
2023-02-23T02:44:32.989Z,23.20
2023-02-23T02:56:51.496Z,22.50
2023-02-23T03:00:45.531Z,21.00
2023-02-23T03:04:32.885Z,21.20
2023-02-23T03:08:19.146Z,22.30
2023-02-23T03:12:07.458Z,21.00
2023-02-23T03:16:00.781Z,24.70
2023-02-23T03:20:00.383Z,20.50
2023-02-23T03:24:03.727Z,25.30
2023-02-23T03:43:44.802Z,21.40
2023-02-23T03:47:32.227Z,21.10
2023-02-23T03:51:22.791Z,20.30
2023-02-23T03:55:13.298Z,20.80
2023-02-23T04:02:28.047Z,19.20
2023-02-23T04:06:15.250Z,21.00
2023-02-23T04:10:02.922Z,23.70
2023-02-23T04:13:43.570Z,24.20
2023-02-23T04:17:12.466Z,24.30
2023-02-23T04:21:01.994Z,16.80
2023-02-23T04:24:49.830Z,21.00
2023-02-23T04:28:39.943Z,21.90
2023-02-23T04:32:28.001Z,26.70
2023-02-23T04:36:18.803Z,21.50
2023-02-23T04:40:07.709Z,22.20
2023-02-23T04:43:56.756Z,24.40
2023-02-23T04:47:45.895Z,24.70
2023-02-23T04:51:35.213Z,23.00
2023-02-23T04:55:24.197Z,22.30
2023-02-23T04:59:13.272Z,22.90
2023-02-23T05:03:02.250Z,23.00
2023-02-23T05:06:51.488Z,19.90
2023-02-23T05:10:40.564Z,23.50
2023-02-23T05:14:29.677Z,24.30
2023-02-23T05:18:18.608Z,23.50
2023-02-23T05:22:07.979Z,22.10
2023-02-23T05:25:28.964Z,21.40
2023-02-23T05:28:53.291Z,22.00
2023-02-23T05:32:42.561Z,22.10
2023-02-23T05:35:52.575Z,21.20
2023-02-23T05:39:41.545Z,23.60
2023-02-23T05:42:13.246Z,25.20
2023-02-23T05:45:44.889Z,23.00
2023-02-23T05:49:17.224Z,25.10
2023-02-23T05:52:40.458Z,33.50
2023-02-23T05:55:50.326Z,29.90
2023-02-23T05:58:20.876Z,31.10
2023-02-23T06:01:12.096Z,31.80
2023-02-23T06:04:24.830Z,33.10
2023-02-23T06:08:03.924Z,32.10
2023-02-23T06:11:33.815Z,35.50
2023-02-23T06:14:32.841Z,36.50
2023-02-23T06:18:21.964Z,45.60
2023-02-23T06:21:30.935Z,46.80
2023-02-23T06:24:53.662Z,51.50
2023-02-23T06:28:16.192Z,58.40
2023-02-23T06:31:58.442Z,63.30
2023-02-23T07:08:07.625Z,78.20
2023-02-23T07:11:06.432Z,78.50
2023-02-23T07:14:01.124Z,76.00
2023-02-23T07:16:38.232Z,73.80
2023-02-23T07:19:45.986Z,78.50
2023-02-23T07:22:28.841Z,76.00
2023-02-23T07:25:04.393Z,78.40
2023-02-23T07:28:34.509Z,77.70
2023-02-23T07:32:01.971Z,75.10
2023-02-23T07:35:22.692Z,61.00
2023-02-23T07:38:33.741Z,63.90
2023-02-23T07:42:12.314Z,60.00
2023-02-23T07:45:52.977Z,62.40
2023-02-23T07:49:40.760Z,57.90
2023-02-23T07:53:17.773Z,58.40
2023-02-23T07:57:05.558Z,107.80
2023-02-23T08:03:51.898Z,99.60
2023-02-23T08:07:30.711Z,89.00
2023-02-23T08:11:10.789Z,64.30
2023-02-23T08:14:31.883Z,63.40
2023-02-23T08:18:20.915Z,56.60
2023-02-23T08:21:41.741Z,54.60
2023-02-23T08:25:19.164Z,54.80
2023-02-23T08:29:08.424Z,55.60
2023-02-23T08:32:50.517Z,52.80
2023-02-23T08:36:28.453Z,54.50
2023-02-23T08:40:17.878Z,54.80
2023-02-23T08:44:20.557Z,52.20
2023-02-23T08:51:48.052Z,49.10
2023-02-23T08:55:24.541Z,50.90
2023-02-23T08:58:53.659Z,53.90
2023-02-23T09:02:42.945Z,51.30
2023-02-23T09:05:35.145Z,53.10
2023-02-23T09:09:15.882Z,53.90
2023-02-23T09:12:55.406Z,51.00
2023-02-23T09:16:24.796Z,66.40
2023-02-23T09:19:43.173Z,71.10
2023-02-23T09:22:51.057Z,58.40
2023-02-23T09:26:20.179Z,58.00
2023-02-23T09:29:52.800Z,54.80
2023-02-23T09:33:30.168Z,54.60
2023-02-23T09:37:11.010Z,54.10
2023-02-23T09:41:00.225Z,49.80
2023-02-23T09:56:16.693Z,48.20
2023-02-23T10:00:07.467Z,43.60
2023-02-23T10:03:59.031Z,42.80
2023-02-23T10:07:59.461Z,38.60
2023-02-23T10:12:08.196Z,46.50
2023-02-23T10:15:49.642Z,47.20
2023-02-23T10:33:22.130Z,87.00
2023-02-23T10:37:06.863Z,82.80
2023-02-23T10:40:04.226Z,50.30
2023-02-23T10:46:14.829Z,71.30
2023-02-23T10:49:48.382Z,95.10
2023-02-23T11:01:49.100Z,45.80
2023-02-23T11:05:41.476Z,41.10
2023-02-23T11:09:46.559Z,41.20
2023-02-23T11:28:03.174Z,41.90
2023-02-23T11:31:32.298Z,40.50
2023-02-23T11:34:32.449Z,43.40
2023-02-23T11:38:12.733Z,38.80
2023-02-23T11:42:04.568Z,39.80
2023-02-23T11:45:56.260Z,44.80
2023-02-23T11:49:48.218Z,45.80
2023-02-23T11:53:09.404Z,53.30
2023-02-23T12:00:55.293Z,41.70
2023-02-23T12:05:10.051Z,42.80
2023-02-23T12:09:07.882Z,39.80
2023-02-23T12:13:03.684Z,41.60
2023-02-23T12:24:57.809Z,40.90
2023-02-23T12:29:23.088Z,39.50
2023-02-23T12:33:15.452Z,38.20
2023-02-23T12:37:05.368Z,37.80
2023-02-23T12:48:53.045Z,34.10
2023-02-23T12:53:00.523Z,35.90
2023-02-23T12:57:04.685Z,33.90
2023-02-23T13:00:57.277Z,34.00
2023-02-23T13:13:12.991Z,38.50
2023-02-23T13:17:16.836Z,24.50
2023-02-23T13:21:22.243Z,15.60
2023-02-23T13:32:52.120Z,16.70
2023-02-23T13:36:31.152Z,60.00
2023-02-23T13:40:05.869Z,22.50
2023-02-23T13:43:10.061Z,30.40
2023-02-23T13:46:21.958Z,33.10
2023-02-23T13:50:17.184Z,46.50
2023-02-23T13:54:10.969Z,51.40
2023-02-23T14:16:48.416Z,12.90
2023-02-23T14:20:51.334Z,17.90
2023-02-23T14:25:03.291Z,10.40
2023-02-23T14:37:13.236Z,7.50
2023-02-23T14:41:02.554Z,9.50
2023-02-23T14:44:54.599Z,9.20
2023-02-23T14:48:27.463Z,9.00
2023-02-23T15:04:02.807Z,10.30
2023-02-23T15:08:06.906Z,8.50
2023-02-23T15:11:53.415Z,8.50
2023-02-23T15:15:35.152Z,10.80
2023-02-23T15:18:34.670Z,9.80
2023-02-23T15:22:09.434Z,10.40
2023-02-23T16:23:08.722Z,19.50
2023-02-23T16:26:58.493Z,16.20
2023-02-23T16:42:46.426Z,14.80
2023-02-23T16:46:38.190Z,15.40
2023-02-23T17:02:07.201Z,21.50
2023-02-23T17:05:56.325Z,17.00
2023-02-23T17:09:45.491Z,10.60
2023-02-23T17:13:36.784Z,11.50
2023-02-23T17:33:01.547Z,11.90
2023-02-23T17:36:50.921Z,11.20
2023-02-23T17:40:39.995Z,11.90
2023-02-23T17:44:29.104Z,10.60
2023-02-23T17:48:18.282Z,12.00
2023-02-23T17:52:07.243Z,12.10
2023-02-23T17:55:56.405Z,71.00
2023-02-23T17:59:46.423Z,17.10
2023-02-23T18:03:35.487Z,14.00
2023-02-23T18:07:24.544Z,13.90
2023-02-23T18:11:07.091Z,13.70
2023-02-23T18:14:56.171Z,12.90
2023-02-23T18:18:45.164Z,12.20
2023-02-23T18:22:34.168Z,12.10
2023-02-23T18:26:25.131Z,14.20
2023-02-23T18:30:15.957Z,20.90
2023-02-23T18:34:05.272Z,13.70
2023-02-23T18:37:54.743Z,18.50
2023-02-23T18:41:44.143Z,19.60
2023-02-23T18:45:33.248Z,25.60
2023-02-23T18:49:22.291Z,27.90
2023-02-23T18:53:12.409Z,39.40
2023-02-23T18:57:01.675Z,18.60
2023-02-23T19:00:51.307Z,38.60
2023-02-23T19:04:40.567Z,35.70
2023-02-23T19:08:30.064Z,30.10
2023-02-23T19:12:19.776Z,20.90
2023-02-23T19:16:12.836Z,17.10
2023-02-23T19:20:02.425Z,24.00
2023-02-23T19:23:50.371Z,21.30
2023-02-23T19:27:40.113Z,32.20
2023-02-23T19:31:29.597Z,20.80
2023-02-23T19:35:19.728Z,19.40
2023-02-23T19:39:11.043Z,19.80
2023-02-23T19:43:01.351Z,26.10
2023-02-23T19:46:52.799Z,22.20
2023-02-23T19:54:55.774Z,18.50
2023-02-23T19:58:42.254Z,17.00
2023-02-23T20:02:22.773Z,21.50
2023-02-23T20:06:14.487Z,22.60
2023-02-23T20:10:02.346Z,15.90
2023-02-23T20:13:45.386Z,18.10
2023-02-23T20:17:27.612Z,21.90
2023-02-23T20:36:44.996Z,16.70
2023-02-23T20:40:43.229Z,13.50
2023-02-23T20:44:32.526Z,21.10
2023-02-23T20:48:21.779Z,16.10
2023-02-23T20:52:04.940Z,15.10
2023-02-23T20:55:56.182Z,14.70
2023-02-23T20:59:46.886Z,15.40
2023-02-23T21:03:37.692Z,14.40
2023-02-23T21:07:26.999Z,15.10
2023-02-23T21:11:16.550Z,16.20
2023-02-23T21:15:05.008Z,15.70
2023-02-23T21:18:54.091Z,17.20
2023-02-23T21:22:46.995Z,15.30
2023-02-23T21:26:36.264Z,15.70
2023-02-23T21:30:25.508Z,15.60
2023-02-23T21:34:14.615Z,14.30
2023-02-23T21:38:04.230Z,13.90
2023-02-23T21:41:53.568Z,14.50
2023-02-23T21:45:42.918Z,14.00
2023-02-23T21:49:24.849Z,14.70
2023-02-23T21:53:15.635Z,13.70
2023-02-23T21:57:07.445Z,13.30
2023-02-23T22:00:56.555Z,13.50
2023-02-23T22:04:46.509Z,13.70
2023-02-23T22:15:55.353Z,13.40
2023-02-23T22:39:10.022Z,15.30
2023-02-23T22:42:59.079Z,14.40
2023-02-23T22:46:40.983Z,13.50
2023-02-23T22:50:29.875Z,13.60
2023-02-23T22:54:19.674Z,13.60
2023-02-23T22:58:38.003Z,11.90
2023-02-23T23:02:27.494Z,12.70
2023-02-23T23:06:16.586Z,12.80
2023-02-23T23:10:05.720Z,12.20
2023-02-23T23:37:04.510Z,13.50
2023-02-23T23:40:53.639Z,13.90
2023-02-23T23:44:42.797Z,13.90
2023-02-23T23:48:31.816Z,13.50
2023-02-23T23:52:21.219Z,13.50
